createdAt,value
2023-03-07T00:00:02.325Z,8.15
2023-03-07T00:02:38.713Z,9.88
2023-03-07T00:05:07.173Z,11.65
2023-03-07T00:07:43.831Z,11.15
2023-03-07T00:10:12.268Z,9.85
2023-03-07T00:12:47.864Z,9.85
2023-03-07T00:15:15.868Z,11.25
2023-03-07T00:18:03.454Z,11.00
2023-03-07T00:20:33.829Z,9.63
2023-03-07T00:23:01.880Z,8.77
2023-03-07T00:25:29.548Z,8.48
2023-03-07T00:27:56.963Z,9.23
2023-03-07T00:30:25.924Z,11.07
2023-03-07T00:32:55.957Z,11.60
2023-03-07T00:35:25.943Z,13.30
2023-03-07T00:38:02.223Z,12.13
2023-03-07T00:40:38.578Z,12.73
2023-03-07T00:43:08.468Z,10.55
2023-03-07T00:45:46.305Z,11.57
2023-03-07T00:48:13.674Z,12.52
2023-03-07T00:50:49.890Z,12.57
2023-03-07T00:53:20.404Z,14.07
2023-03-07T00:56:00.223Z,9.02
2023-03-07T00:58:53.531Z,8.75
2023-03-07T01:01:25.311Z,9.38
2023-03-07T01:04:15.454Z,9.48
2023-03-07T01:09:13.028Z,8.63
2023-03-07T01:11:46.461Z,7.95
2023-03-07T01:14:18.950Z,9.38
2023-03-07T01:17:01.988Z,6.90
2023-03-07T01:19:30.065Z,6.53
2023-03-07T01:22:05.625Z,5.55
2023-03-07T01:24:35.160Z,4.97
2023-03-07T01:27:05.259Z,7.25
2023-03-07T01:29:35.700Z,5.50
2023-03-07T01:32:06.819Z,8.23
2023-03-07T01:34:52.326Z,5.38
2023-03-07T01:37:21.315Z,4.82
2023-03-07T01:39:54.671Z,6.78
2023-03-07T01:42:22.045Z,7.43
2023-03-07T01:45:12.640Z,7.32
2023-03-07T01:47:46.048Z,6.05
2023-03-07T01:50:23.797Z,7.30
2023-03-07T01:52:58.686Z,7.03
2023-03-07T01:55:31.721Z,8.27
2023-03-07T01:58:10.933Z,9.48
2023-03-07T02:00:44.624Z,7.82
2023-03-07T02:03:32.772Z,5.45
2023-03-07T02:06:15.172Z,5.95
2023-03-07T02:08:46.106Z,5.40
2023-03-07T02:11:14.443Z,4.47
2023-03-07T02:13:45.413Z,6.28
2023-03-07T02:16:15.374Z,7.18
2023-03-07T02:18:46.525Z,6.35
2023-03-07T02:21:35.453Z,6.20
2023-03-07T02:24:44.390Z,6.43
2023-03-07T02:27:13.154Z,8.50
2023-03-07T02:29:41.100Z,9.73
2023-03-07T02:32:12.051Z,7.70
2023-03-07T02:34:39.949Z,6.70
2023-03-07T02:37:39.409Z,7.78
2023-03-07T02:40:16.768Z,8.93
2023-03-07T02:42:58.686Z,7.70
2023-03-07T02:45:34.388Z,6.25
2023-03-07T02:48:04.007Z,9.05
2023-03-07T02:50:31.868Z,9.82
2023-03-07T02:53:04.671Z,5.97
2023-03-07T02:55:33.704Z,7.03
2023-03-07T02:58:03.530Z,5.75
2023-03-07T03:00:31.560Z,6.47
2023-03-07T03:03:12.435Z,6.22
2023-03-07T03:05:45.967Z,9.15
2023-03-07T03:08:15.763Z,8.30
2023-03-07T03:11:58.384Z,9.48
2023-03-07T03:14:06.549Z,6.53
2023-03-07T03:16:37.121Z,6.70
2023-03-07T03:19:07.743Z,7.68
2023-03-07T03:21:35.621Z,5.28
2023-03-07T03:24:08.362Z,7.90
2023-03-07T03:26:37.203Z,10.05
2023-03-07T03:29:15.833Z,9.77
2023-03-07T03:34:20.205Z,5.75
2023-03-07T03:37:05.255Z,6.70
2023-03-07T03:39:32.938Z,11.98
2023-03-07T03:42:00.754Z,9.32
2023-03-07T03:44:28.083Z,7.38
2023-03-07T03:46:58.326Z,11.45
2023-03-07T03:49:27.690Z,8.38
2023-03-07T03:51:55.116Z,7.55
2023-03-07T03:54:44.558Z,5.82
2023-03-07T03:59:47.748Z,9.05
2023-03-07T04:02:19.825Z,7.22
2023-03-07T04:04:59.588Z,10.15
2023-03-07T04:07:29.675Z,4.47
2023-03-07T04:09:57.523Z,5.65
2023-03-07T04:12:28.206Z,7.78
2023-03-07T04:15:03.440Z,5.57
2023-03-07T04:17:34.697Z,5.95
2023-03-07T04:20:14.561Z,9.73
2023-03-07T04:22:49.366Z,10.30
2023-03-07T04:25:21.577Z,10.13
2023-03-07T04:27:53.066Z,8.88
2023-03-07T04:30:27.782Z,7.57
2023-03-07T04:32:55.627Z,6.22
2023-03-07T04:35:23.529Z,9.27
2023-03-07T04:37:52.327Z,6.22
2023-03-07T04:40:22.255Z,7.93
2023-03-07T04:42:54.368Z,5.70
2023-03-07T04:45:27.838Z,11.77
2023-03-07T04:48:02.614Z,7.70
2023-03-07T04:50:42.205Z,7.50
2023-03-07T04:53:19.859Z,7.53
2023-03-07T04:58:35.799Z,7.25
2023-03-07T05:01:06.448Z,10.32
2023-03-07T05:03:37.453Z,9.88
2023-03-07T05:06:08.129Z,9.75
2023-03-07T05:08:43.741Z,10.32
2023-03-07T05:11:19.804Z,10.45
2023-03-07T05:13:50.081Z,10.60
2023-03-07T05:16:44.215Z,9.35
2023-03-07T05:19:13.558Z,10.00
2023-03-07T05:21:42.049Z,10.18
2023-03-07T05:24:16.465Z,8.07
2023-03-07T05:26:47.952Z,11.25
2023-03-07T05:29:33.592Z,10.88
2023-03-07T05:32:10.565Z,9.93
2023-03-07T05:34:40.856Z,9.73
2023-03-07T05:37:13.738Z,7.85
2023-03-07T05:39:41.828Z,7.88
2023-03-07T05:42:13.487Z,10.38
2023-03-07T05:44:46.617Z,14.80
2023-03-07T05:47:25.894Z,12.52
2023-03-07T05:50:06.300Z,11.35
2023-03-07T05:52:40.405Z,9.30
2023-03-07T05:55:10.940Z,8.93
2023-03-07T05:57:44.046Z,12.27
2023-03-07T06:00:50.911Z,13.65
2023-03-07T06:03:28.912Z,13.88
2023-03-07T06:06:02.318Z,12.57
2023-03-07T06:08:33.561Z,16.40
2023-03-07T06:11:07.390Z,14.23
2023-03-07T06:13:56.554Z,14.15
2023-03-07T06:16:27.411Z,11.02
2023-03-07T06:19:00.849Z,9.80
2023-03-07T06:21:34.159Z,12.10
2023-03-07T06:24:27.324Z,12.27
2023-03-07T06:27:20.365Z,12.98
2023-03-07T06:30:07.132Z,11.43
2023-03-07T06:32:42.584Z,14.88
2023-03-07T06:35:15.928Z,11.38
2023-03-07T06:40:41.917Z,11.18
2023-03-07T06:43:27.069Z,13.10
2023-03-07T06:46:03.709Z,13.10
2023-03-07T06:48:48.851Z,12.25
2023-03-07T06:51:43.406Z,11.45
2023-03-07T06:58:26.657Z,14.23
2023-03-07T07:01:13.689Z,14.15
2023-03-07T07:04:05.932Z,12.60
2023-03-07T07:07:02.058Z,11.20
2023-03-07T07:20:16.279Z,9.15
2023-03-07T07:23:12.428Z,10.45
2023-03-07T07:25:55.511Z,8.70
2023-03-07T07:31:55.805Z,17.75
2023-03-07T07:35:25.907Z,17.60
2023-03-07T07:37:58.267Z,12.30
2023-03-07T07:41:18.438Z,24.45
2023-03-07T07:44:32.820Z,15.70
2023-03-07T07:47:19.120Z,11.38
2023-03-07T07:50:07.349Z,15.68
2023-03-07T07:56:02.457Z,10.73
2023-03-07T07:59:00.914Z,8.68
2023-03-07T08:01:52.769Z,10.27
2023-03-07T08:11:26.617Z,9.80
2023-03-07T08:14:40.252Z,5.50
2023-03-07T08:17:17.035Z,4.57
2023-03-07T08:34:10.326Z,4.63
2023-03-07T08:38:43.704Z,5.80
2023-03-07T08:40:28.317Z,4.03
2023-03-07T08:43:15.225Z,5.68
2023-03-07T08:46:37.419Z,6.28
2023-03-07T08:49:10.142Z,6.78
2023-03-07T08:56:25.831Z,7.32
2023-03-07T08:59:05.256Z,5.47
2023-03-07T09:01:54.836Z,6.43
2023-03-07T09:08:35.512Z,4.95
2023-03-07T09:11:15.305Z,4.72
2023-03-07T09:16:45.461Z,7.22
2023-03-07T09:19:49.430Z,3.90
2023-03-07T09:23:12.451Z,7.22
2023-03-07T09:25:17.937Z,7.22
2023-03-07T09:30:46.908Z,8.50
2023-03-07T09:33:17.997Z,10.52
2023-03-07T09:36:05.718Z,7.88
2023-03-07T09:38:43.691Z,11.38
2023-03-07T09:42:19.460Z,10.43
2023-03-07T09:45:31.574Z,8.40
2023-03-07T09:49:05.500Z,7.75
2023-03-07T09:52:42.735Z,5.53
2023-03-07T10:07:24.081Z,6.00
2023-03-07T10:10:00.160Z,8.05
2023-03-07T10:13:29.605Z,7.20
2023-03-07T10:16:53.869Z,8.75
2023-03-07T10:19:56.650Z,5.63
2023-03-07T10:23:47.240Z,11.32
2023-03-07T10:42:06.753Z,7.80
2023-03-07T10:48:44.065Z,4.13
2023-03-07T10:58:57.227Z,4.07
2023-03-07T11:01:29.555Z,2.92
2023-03-07T11:04:37.408Z,5.68
2023-03-07T11:07:41.250Z,6.57
2023-03-07T11:10:36.066Z,5.55
2023-03-07T11:14:15.402Z,4.78
2023-03-07T11:17:37.678Z,6.47
2023-03-07T11:20:36.241Z,6.43
2023-03-07T11:27:33.145Z,4.50
2023-03-07T11:38:22.615Z,5.07
2023-03-07T11:41:40.268Z,8.20
2023-03-07T11:44:59.891Z,6.85
2023-03-07T11:48:41.656Z,5.85
2023-03-07T11:51:52.808Z,6.55
2023-03-07T11:59:04.220Z,7.75
2023-03-07T12:01:41.858Z,5.20
2023-03-07T12:04:52.406Z,4.57
2023-03-07T12:08:08.587Z,7.35
2023-03-07T12:11:40.356Z,4.90
2023-03-07T12:15:11.512Z,3.55
2023-03-07T12:22:18.008Z,6.82
2023-03-07T12:26:20.081Z,5.35
2023-03-07T12:33:06.257Z,5.00
2023-03-07T12:40:06.494Z,6.97
2023-03-07T12:43:47.004Z,6.55
2023-03-07T12:47:18.134Z,7.53
2023-03-07T12:54:39.065Z,7.07
2023-03-07T12:57:56.187Z,7.13
2023-03-07T13:00:36.482Z,5.32
2023-03-07T13:04:18.814Z,4.35
2023-03-07T13:06:51.678Z,6.30
2023-03-07T13:09:33.870Z,6.60
2023-03-07T13:12:23.772Z,8.20
2023-03-07T13:15:00.201Z,6.15
2023-03-07T13:17:42.374Z,6.75
2023-03-07T13:21:22.781Z,5.68
2023-03-07T13:24:49.662Z,6.40
2023-03-07T13:27:37.257Z,6.18
2023-03-07T13:30:15.356Z,7.78
2023-03-07T13:33:28.854Z,7.35
2023-03-07T13:36:01.297Z,5.38
2023-03-07T13:38:54.434Z,4.93
2023-03-07T13:45:44.640Z,4.75
2023-03-07T13:49:38.851Z,8.75
2023-03-07T13:52:35.165Z,8.15
2023-03-07T13:58:39.534Z,10.52
2023-03-07T14:01:33.038Z,7.32
2023-03-07T14:04:39.399Z,8.73
2023-03-07T14:07:31.969Z,6.45
2023-03-07T14:10:51.473Z,6.63
2023-03-07T14:13:49.695Z,8.65
2023-03-07T14:17:25.053Z,6.90
2023-03-07T14:23:56.572Z,7.20
2023-03-07T14:27:13.660Z,8.93
2023-03-07T14:33:29.200Z,5.40
2023-03-07T14:36:07.330Z,5.63
2023-03-07T14:41:58.055Z,6.07
2023-03-07T14:44:58.343Z,8.68
2023-03-07T14:48:15.273Z,6.47
2023-03-07T14:51:22.230Z,7.78
2023-03-07T14:53:53.282Z,4.90
2023-03-07T14:56:36.058Z,6.03
2023-03-07T14:59:29.325Z,7.68
2023-03-07T15:02:40.261Z,9.30
2023-03-07T15:05:17.534Z,9.02
2023-03-07T15:09:01.570Z,9.20
2023-03-07T15:12:00.092Z,6.10
2023-03-07T15:14:56.951Z,8.80
2023-03-07T15:18:39.753Z,9.65
2023-03-07T15:22:11.001Z,5.47
2023-03-07T15:25:18.800Z,8.73
2023-03-07T15:31:30.475Z,9.35
2023-03-07T15:41:53.935Z,10.27
2023-03-07T15:44:35.456Z,9.25
2023-03-07T15:48:14.257Z,6.63
2023-03-07T15:51:17.325Z,14.65
2023-03-07T15:55:10.617Z,9.35
2023-03-07T15:58:46.975Z,9.30
2023-03-07T16:01:39.036Z,14.38
2023-03-07T16:04:45.276Z,9.35
2023-03-07T16:19:47.531Z,19.13
2023-03-07T16:22:36.368Z,11.05
2023-03-07T16:48:06.702Z,14.48
2023-03-07T16:51:00.651Z,12.60
2023-03-07T16:54:00.811Z,7.40
2023-03-07T16:56:38.850Z,8.77
2023-03-07T16:59:29.644Z,6.35
2023-03-07T17:02:06.465Z,38.72
2023-03-07T17:04:48.893Z,7.57
2023-03-07T17:07:30.316Z,8.10
2023-03-07T17:10:33.451Z,15.73
2023-03-07T17:13:18.706Z,8.18
2023-03-07T17:15:55.970Z,9.60
2023-03-07T17:18:35.799Z,8.75
2023-03-07T17:21:37.043Z,26.17
2023-03-07T17:24:16.230Z,9.80
2023-03-07T17:27:10.144Z,15.10
2023-03-07T17:33:09.184Z,11.02
2023-03-07T17:36:07.886Z,32.17
2023-03-07T17:39:09.118Z,10.70
2023-03-07T17:42:15.072Z,12.98
2023-03-07T17:44:59.141Z,15.95
2023-03-07T17:47:34.729Z,18.17
2023-03-07T17:56:41.212Z,21.88
2023-03-07T17:59:16.900Z,20.77
2023-03-07T18:02:01.906Z,20.25
2023-03-07T18:04:58.726Z,26.67
2023-03-07T18:07:31.790Z,30.95
2023-03-07T18:10:15.217Z,38.42
2023-03-07T18:13:00.614Z,31.42
2023-03-07T18:15:37.136Z,27.23
2023-03-07T18:18:09.448Z,27.02
2023-03-07T18:20:52.987Z,28.50
2023-03-07T18:23:30.933Z,24.83
2023-03-07T18:26:13.307Z,21.67
2023-03-07T18:28:47.428Z,26.65
2023-03-07T18:31:29.783Z,25.77
2023-03-07T18:34:10.993Z,26.05
2023-03-07T18:36:47.514Z,52.70
2023-03-07T18:39:20.350Z,100.22
2023-03-07T18:42:26.104Z,89.30
2023-03-07T18:45:02.326Z,33.53
2023-03-07T18:47:37.069Z,31.92
2023-03-07T18:50:25.325Z,33.28
2023-03-07T18:53:07.156Z,32.13
2023-03-07T18:58:38.242Z,26.67
2023-03-07T19:01:32.845Z,26.02
2023-03-07T19:04:11.669Z,25.73
2023-03-07T19:06:59.118Z,23.02
2023-03-07T19:09:43.981Z,22.98
2023-03-07T19:12:14.669Z,26.27
2023-03-07T19:14:47.814Z,25.77
2023-03-07T19:17:22.257Z,21.55
2023-03-07T19:20:37.845Z,28.20
2023-03-07T19:23:21.881Z,24.13
2023-03-07T19:26:11.143Z,23.55
2023-03-07T19:28:47.002Z,24.73
2023-03-07T19:31:18.998Z,25.27
2023-03-07T19:33:48.806Z,24.92
2023-03-07T19:36:27.790Z,25.35
2023-03-07T19:39:01.611Z,27.67
2023-03-07T19:41:37.308Z,22.10
2023-03-07T19:44:14.339Z,22.25
2023-03-07T19:46:46.513Z,20.98
2023-03-07T19:49:16.172Z,23.23
2023-03-07T19:51:44.794Z,19.65
2023-03-07T19:54:26.496Z,21.83
2023-03-07T19:56:58.484Z,15.95
2023-03-07T19:59:34.704Z,18.95
2023-03-07T20:02:15.025Z,19.98
2023-03-07T20:04:47.143Z,16.13
2023-03-07T20:10:15.901Z,18.65
2023-03-07T20:12:46.033Z,22.65
2023-03-07T20:15:15.602Z,17.45
2023-03-07T20:17:43.070Z,16.20
2023-03-07T20:20:27.013Z,15.00
2023-03-07T20:23:06.561Z,16.50
2023-03-07T20:25:33.916Z,17.40
2023-03-07T20:28:22.888Z,15.05
2023-03-07T20:31:13.851Z,14.23
2023-03-07T20:33:46.516Z,15.93
2023-03-07T20:36:19.755Z,15.07
2023-03-07T20:38:57.154Z,13.73
2023-03-07T20:41:43.064Z,13.90
2023-03-07T20:44:16.939Z,12.07
2023-03-07T20:46:48.641Z,13.65
2023-03-07T20:49:16.509Z,18.20
2023-03-07T20:51:46.839Z,15.05
2023-03-07T20:54:18.263Z,14.93
2023-03-07T20:56:49.451Z,15.63
2023-03-07T20:59:23.378Z,14.93
2023-03-07T21:01:53.494Z,14.60
2023-03-07T21:04:23.330Z,14.13
2023-03-07T21:06:57.561Z,17.25
2023-03-07T21:09:37.898Z,18.38
2023-03-07T21:12:15.729Z,14.23
2023-03-07T21:14:46.064Z,15.35
2023-03-07T21:17:20.686Z,11.77
2023-03-07T21:19:57.050Z,18.52
2023-03-07T21:22:49.717Z,15.55
2023-03-07T21:25:20.307Z,16.15
2023-03-07T21:27:48.989Z,13.68
2023-03-07T21:30:25.146Z,15.43
2023-03-07T21:33:01.628Z,14.35
2023-03-07T21:35:35.575Z,17.60
2023-03-07T21:38:13.604Z,18.15
2023-03-07T21:40:53.916Z,15.27
2023-03-07T21:43:25.223Z,15.23
2023-03-07T21:45:52.989Z,18.05
2023-03-07T21:48:23.018Z,19.65
2023-03-07T21:50:55.572Z,17.17
2023-03-07T21:53:25.338Z,19.55
2023-03-07T21:56:19.695Z,21.95
2023-03-07T21:59:08.529Z,20.35
2023-03-07T22:01:45.256Z,17.08
2023-03-07T22:04:14.360Z,17.20
2023-03-07T22:06:43.284Z,16.00
2023-03-07T22:09:44.422Z,15.90
2023-03-07T22:12:15.275Z,17.27
2023-03-07T22:14:51.962Z,16.70
2023-03-07T22:17:19.297Z,18.20
2023-03-07T22:19:48.846Z,17.55
2023-03-07T22:22:47.027Z,19.52
2023-03-07T22:25:13.174Z,19.08
2023-03-07T22:27:40.993Z,18.65
2023-03-07T22:30:19.542Z,18.48
2023-03-07T22:32:49.781Z,19.70
2023-03-07T22:35:17.613Z,20.92
2023-03-07T22:37:51.523Z,21.63
2023-03-07T22:40:25.832Z,22.77
2023-03-07T22:42:55.029Z,19.65
2023-03-07T22:45:33.320Z,24.20
2023-03-07T22:48:00.933Z,22.15
2023-03-07T22:50:29.047Z,23.52
2023-03-07T22:52:59.142Z,20.20
2023-03-07T22:55:35.569Z,24.55
2023-03-07T22:58:07.959Z,22.85
2023-03-07T23:00:45.048Z,27.90
2023-03-07T23:03:15.045Z,23.65
2023-03-07T23:05:51.678Z,23.88
2023-03-07T23:08:36.459Z,25.00
2023-03-07T23:11:08.133Z,24.08
2023-03-07T23:13:39.859Z,36.58
2023-03-07T23:16:28.273Z,26.77
2023-03-07T23:18:57.568Z,21.75
2023-03-07T23:21:32.186Z,22.70
2023-03-07T23:24:00.629Z,24.77
2023-03-07T23:26:35.496Z,26.42
2023-03-07T23:29:07.270Z,21.52
2023-03-07T23:31:39.213Z,22.85
2023-03-07T23:34:21.414Z,24.02
2023-03-07T23:36:49.247Z,20.08
2023-03-07T23:39:26.225Z,20.67
2023-03-07T23:41:57.106Z,25.92
2023-03-07T23:44:33.355Z,24.13
2023-03-07T23:47:08.307Z,25.85
2023-03-07T23:49:45.968Z,23.85
2023-03-07T23:52:30.383Z,23.65
2023-03-07T23:55:12.435Z,21.55
2023-03-07T23:57:41.169Z,19.67
